createdAt,value
2022-08-26T17:31:40.928Z,2.70
2022-08-26T17:37:05.417Z,2.60
2022-08-26T17:39:33.424Z,2.70
2022-08-26T17:42:01.658Z,2.70
2022-08-26T17:44:30.150Z,2.40
2022-08-26T17:46:58.905Z,2.80
2022-08-26T17:49:33.304Z,2.70
2022-08-26T17:52:08.467Z,3.00
2022-08-26T17:54:43.706Z,3.20
2022-08-26T17:57:13.818Z,3.00
2022-08-26T17:59:51.048Z,3.60
2022-08-26T18:02:23.852Z,3.20
2022-08-26T18:04:52.714Z,3.40
2022-08-26T18:07:20.858Z,2.70
2022-08-26T18:09:49.479Z,2.90
2022-08-26T18:12:17.993Z,2.80
2022-08-26T18:14:46.583Z,3.00
2022-08-26T18:17:16.272Z,3.00
2022-08-26T18:19:48.383Z,2.90
2022-08-26T18:22:17.204Z,3.00
2022-08-26T18:24:57.377Z,3.10
2022-08-26T18:27:28.274Z,3.30
2022-08-26T18:29:57.542Z,4.20
2022-08-26T18:32:25.754Z,3.30
2022-08-26T18:35:21.358Z,3.10
2022-08-26T18:37:51.441Z,3.90
2022-08-26T18:40:21.079Z,3.50
2022-08-26T18:42:54.219Z,3.40
2022-08-26T18:45:22.840Z,3.80
2022-08-26T18:47:51.442Z,3.60
2022-08-26T18:50:19.739Z,3.80
2022-08-26T18:52:48.033Z,3.40
2022-08-26T18:55:16.800Z,4.00
2022-08-26T18:57:45.004Z,4.10
2022-08-26T19:00:14.093Z,3.40
2022-08-26T19:02:42.124Z,3.60
2022-08-26T19:05:15.522Z,3.80
2022-08-26T19:07:44.015Z,3.40
2022-08-26T19:10:17.314Z,4.00
2022-08-26T19:12:46.455Z,3.60
2022-08-26T19:15:20.010Z,3.40
2022-08-26T19:17:48.466Z,4.00
2022-08-26T19:20:16.603Z,4.40
2022-08-26T19:22:45.899Z,4.40
2022-08-26T19:25:14.229Z,4.20
2022-08-26T19:27:42.084Z,4.60
2022-08-26T19:30:10.925Z,4.70
2022-08-26T19:32:39.780Z,4.60
2022-08-26T19:35:08.454Z,5.00
2022-08-26T19:37:36.524Z,4.90
2022-08-26T19:40:08.165Z,5.00
2022-08-26T19:42:45.476Z,5.60
2022-08-26T19:45:25.056Z,5.50
2022-08-26T19:48:12.010Z,5.60
2022-08-26T19:50:40.303Z,5.70
2022-08-26T19:53:10.172Z,5.50
2022-08-26T19:55:39.349Z,5.20
2022-08-26T19:58:27.625Z,5.70
2022-08-26T20:00:56.169Z,5.90
2022-08-26T20:03:24.451Z,6.60
2022-08-26T20:05:52.395Z,8.00
2022-08-26T20:08:22.242Z,5.90
2022-08-26T20:10:51.477Z,6.30
2022-08-26T20:13:21.123Z,6.40
2022-08-26T20:15:49.285Z,6.70
2022-08-26T20:18:36.813Z,6.60
2022-08-26T20:21:25.967Z,6.60
2022-08-26T20:24:09.972Z,6.30
2022-08-26T20:26:40.039Z,6.30
2022-08-26T20:29:10.390Z,6.20
2022-08-26T20:31:39.629Z,6.60
2022-08-26T20:34:07.958Z,6.90
2022-08-26T20:36:39.579Z,6.90
2022-08-26T20:39:10.724Z,6.70
2022-08-26T20:41:40.035Z,6.70
2022-08-26T20:44:09.445Z,6.00
2022-08-26T20:46:38.553Z,6.80
2022-08-26T20:49:07.617Z,7.00
2022-08-26T20:51:37.179Z,6.40
2022-08-26T20:54:07.146Z,7.10
2022-08-26T20:56:36.652Z,6.80
2022-08-26T20:59:06.802Z,7.30
2022-08-26T21:01:39.876Z,6.50
2022-08-26T21:04:15.323Z,6.50
2022-08-26T21:06:45.159Z,6.50
2022-08-26T21:09:23.342Z,6.90
2022-08-26T21:11:52.498Z,6.10
2022-08-26T21:14:22.842Z,6.80
2022-08-26T21:16:54.252Z,6.00
2022-08-26T21:19:22.791Z,5.90
2022-08-26T21:21:50.956Z,5.70
2022-08-26T21:24:19.525Z,6.40
2022-08-26T21:26:48.385Z,6.00
2022-08-26T21:29:16.488Z,5.20
2022-08-26T21:31:46.447Z,5.90
2022-08-26T21:34:18.437Z,5.50
2022-08-26T21:36:49.692Z,5.40
2022-08-26T21:39:18.244Z,5.20
2022-08-26T21:41:47.403Z,5.90
2022-08-26T21:44:17.739Z,4.60
2022-08-26T21:46:47.098Z,4.90
2022-08-26T21:49:17.485Z,4.80
2022-08-26T21:51:48.848Z,5.10
2022-08-26T21:54:18.275Z,5.40
2022-08-26T21:56:48.549Z,5.20
2022-08-26T21:59:19.571Z,5.30
2022-08-26T22:01:48.953Z,5.40
2022-08-26T22:04:18.202Z,5.20
2022-08-26T22:06:53.908Z,4.10
2022-08-26T22:09:26.828Z,4.60
2022-08-26T22:11:57.034Z,4.50
2022-08-26T22:14:30.785Z,4.80
2022-08-26T22:17:33.367Z,4.80
2022-08-26T22:20:01.975Z,4.10
2022-08-26T22:22:32.139Z,4.00
2022-08-26T22:25:00.169Z,4.10
2022-08-26T22:27:28.250Z,4.50
2022-08-26T22:29:56.108Z,4.30
2022-08-26T22:32:23.952Z,3.90
2022-08-26T22:34:51.839Z,4.70
2022-08-26T22:37:20.545Z,4.40
2022-08-26T22:39:48.708Z,5.00
2022-08-26T22:42:16.920Z,4.60
2022-08-26T22:44:45.180Z,4.50
2022-08-26T22:47:13.145Z,5.00
2022-08-26T22:49:41.679Z,4.20
2022-08-26T22:52:09.813Z,4.30
2022-08-26T22:54:37.887Z,4.30
2022-08-26T22:57:06.145Z,4.60
2022-08-26T22:59:34.537Z,4.30
2022-08-26T23:02:02.469Z,4.50
2022-08-26T23:04:30.579Z,4.40
2022-08-26T23:06:58.870Z,4.60
2022-08-26T23:09:26.682Z,4.60
2022-08-26T23:11:56.518Z,4.50
2022-08-26T23:14:25.773Z,4.60
2022-08-26T23:16:53.735Z,4.60
2022-08-26T23:19:22.801Z,4.70
2022-08-26T23:21:51.171Z,4.90
2022-08-26T23:24:19.389Z,4.50
2022-08-26T23:26:48.519Z,4.80
2022-08-26T23:29:16.832Z,5.00
2022-08-26T23:31:45.558Z,4.80
2022-08-26T23:34:32.339Z,5.20
2022-08-26T23:37:01.081Z,5.50
2022-08-26T23:39:32.626Z,5.00
2022-08-26T23:42:02.991Z,5.70
2022-08-26T23:44:31.389Z,5.10
2022-08-26T23:47:00.145Z,5.20
2022-08-26T23:49:29.151Z,5.20
2022-08-26T23:52:15.977Z,5.60
2022-08-26T23:54:45.404Z,5.00
2022-08-26T23:57:13.112Z,4.90
2022-08-26T23:59:41.180Z,5.60
